CheckWX is a tool to help pilots better visualize weather data.  It is not intended as a substitute for an official pre-flight weather briefing.

08:41:42 UTC

LFPG METAR
Charles de Gaulle International Airport
Paris, France
Current

12 mins ago

LFPG 060830Z 20011KT 7000 -RA BKN008 BKN066 BKN083 02/01 Q1017 NOSIG
Observed
Dec-6 @ 08:30 UTC
Wind
  • 200° at 11 KTS
Visibility
7,000 meters
Flight Rules
IFR
Conditions
Light Rain
Cloud Levels
  • Broken at 800' AGL
  • Broken at 6,600' AGL
  • Broken at 8,300' AGL
Temperature
C / 36°F
Dewpoint
C / 34°F
Humidity
93%
Altimeter
30.03" Hg
Pressure
1016.92 hPa
Previous

42 mins ago

LFPG 060800Z 19011KT 7000 FEW009 BKN060 BKN110 02/00 Q1017 TEMPO BKN008
Observed
Dec-6 @ 08:00 UTC
Wind
  • 190° at 11 KTS
Visibility
7,000 meters
Flight Rules
MVFR
Cloud Levels
  • Few at 900' AGL
  • Broken at 6,000' AGL
  • Broken at 11,000' AGL
Temperature
C / 36°F
Dewpoint
C / 32°F
Humidity
87%
Altimeter
30.03" Hg
Pressure
1016.92 hPa
Previous

1 hour ago

LFPG 060730Z 19011KT 7000 NSC 02/M00 Q1018 TEMPO BKN008
Observed
Dec-6 @ 07:30 UTC
Wind
  • 190° at 11 KTS
Visibility
7,000 meters
Flight Rules
MVFR
Cloud Levels
  • Clear skies
Temperature
C / 36°F
Dewpoint
C / 32°F
Humidity
87%
Altimeter
30.06" Hg
Pressure
1017.92 hPa